Time;durP1;ratioP1;P1;durP2;ratioP2;P2;SDS_P1;SDS_P2;PMS_P1;PMS_P2;Temp;Humidity;BMP_temperature;BMP_pressure;BME280_temperature;BME280_humidity;BME280_pressure;Samples;Min_cycle;Max_cycle;Signal;HPM_P1;HPM_P2
2023/06/03 00:02:04;;;;;;;5.45;2.97;;;14.60;99.90;;;;;;5091438;28;20169;-47
2023/06/03 00:04:30;;;;;;;6.88;2.97;;;14.60;99.90;;;;;;5091305;28;20168;-47
2023/06/03 00:06:59;;;;;;;5.95;3.58;;;14.30;99.90;;;;;;5091218;28;20213;-47
2023/06/03 00:09:25;;;;;;;8.45;3.60;;;14.40;99.90;;;;;;5091383;28;20520;-47
2023/06/03 00:11:51;;;;;;;8.45;3.15;;;14.20;99.90;;;;;;5091299;28;20258;-47
2023/06/03 00:14:17;;;;;;;5.82;3.20;;;14.30;99.90;;;;;;5091375;28;20173;-47
2023/06/03 00:16:46;;;;;;;6.40;3.40;;;14.50;99.90;;;;;;5091421;28;20632;-47
2023/06/03 00:19:17;;;;;;;10.65;3.60;;;14.30;99.90;;;;;;5091292;28;20291;-47
2023/06/03 00:21:49;;;;;;;6.70;3.17;;;14.30;99.90;;;;;;5091284;28;20162;-47
2023/06/03 00:24:19;;;;;;;5.25;3.38;;;14.40;99.90;;;;;;5091513;28;20619;-47
2023/06/03 00:26:45;;;;;;;4.63;3.15;;;14.20;99.90;;;;;;5091588;28;20254;-47
2023/06/03 00:29:10;;;;;;;6.97;3.53;;;14.30;99.90;;;;;;5095430;28;20222;-47
2023/06/03 00:31:36;;;;;;;5.75;3.75;;;14.20;99.90;;;;;;5095081;28;20212;-47
2023/06/03 00:34:02;;;;;;;6.68;3.30;;;14.30;99.90;;;;;;5095198;28;20240;-47
2023/06/03 00:36:27;;;;;;;6.38;3.72;;;14.20;99.90;;;;;;5095220;28;20169;-47
2023/06/03 00:38:53;;;;;;;8.55;3.35;;;14.10;99.90;;;;;;5095130;28;20303;-47
2023/06/03 00:41:19;;;;;;;6.68;3.42;;;14.00;99.90;;;;;;5095042;28;20244;-47
2023/06/03 00:43:45;;;;;;;7.30;3.67;;;14.10;99.90;;;;;;5095014;28;20192;-47
2023/06/03 00:46:10;;;;;;;11.18;3.70;;;13.90;99.90;;;;;;5095404;28;20632;-47
2023/06/03 00:48:38;;;;;;;4.03;3.17;;;13.90;99.90;;;;;;5094832;28;20161;-47
2023/06/03 00:51:04;;;;;;;10.98;4.22;;;14.00;99.90;;;;;;5094974;28;20192;-48
2023/06/03 00:53:29;;;;;;;6.88;3.65;;;14.50;99.90;;;;;;5094758;28;20219;-47
2023/06/03 00:55:55;;;;;;;8.52;3.35;;;14.00;99.90;;;;;;5095016;28;20173;-47
2023/06/03 00:58:21;;;;;;;6.97;3.17;;;13.90;99.90;;;;;;5094764;28;20169;-47
2023/06/03 01:00:47;;;;;;;7.65;4.00;;;13.90;99.90;;;;;;5094667;28;20169;-47
2023/06/03 01:03:14;;;;;;;7.40;3.63;;;13.80;99.90;;;;;;5094758;28;20173;-47
2023/06/03 01:05:43;;;;;;;8.32;3.50;;;14.00;99.90;;;;;;5095234;28;20180;-47
2023/06/03 01:08:26;;;;;;;8.10;3.30;;;13.70;99.90;;;;;;5094771;28;20217;-47
2023/06/03 01:11:04;;;;;;;5.38;2.95;;;13.80;99.90;;;;;;5094641;28;20600;-47
2023/06/03 01:13:58;;;;;;;12.93;3.33;;;13.70;99.90;;;;;;5094642;28;20261;-47
2023/06/03 01:16:25;;;;;;;7.00;4.20;;;13.60;99.90;;;;;;5043062;28;20633;-47
2023/06/03 01:18:52;;;;;;;8.05;3.38;;;13.70;99.90;;;;;;5094423;28;20197;-47
2023/06/03 01:21:18;;;;;;;5.82;3.50;;;13.60;99.90;;;;;;5094397;28;20157;-47
2023/06/03 01:23:45;;;;;;;8.45;3.63;;;13.70;99.90;;;;;;5094313;28;20235;-47
2023/06/03 01:26:11;;;;;;;6.93;3.70;;;13.10;99.90;;;;;;5094608;28;20164;-47
2023/06/03 01:28:38;;;;;;;8.13;3.50;;;13.60;99.90;;;;;;5094942;28;20173;-47
2023/06/03 01:31:05;;;;;;;6.47;3.78;;;13.60;99.90;;;;;;5094261;28;20204;-47
2023/06/03 01:33:32;;;;;;;5.75;3.72;;;13.60;99.90;;;;;;5093935;28;20683;-47
2023/06/03 01:36:00;;;;;;;5.97;3.30;;;13.60;99.90;;;;;;5094001;28;20239;-47
2023/06/03 01:38:26;;;;;;;9.82;3.28;;;13.40;99.90;;;;;;5094144;28;20525;-47
2023/06/03 01:40:52;;;;;;;9.32;3.85;;;13.60;99.90;;;;;;5093999;28;20173;-47
2023/06/03 01:43:18;;;;;;;8.05;3.92;;;13.50;99.90;;;;;;5094051;28;20172;-47
2023/06/03 01:45:44;;;;;;;8.38;4.55;;;13.40;99.90;;;;;;5093829;28;20246;-47
2023/06/03 01:48:10;;;;;;;8.65;3.83;;;13.50;99.90;;;;;;5094391;28;20194;-47
2023/06/03 01:50:40;;;;;;;8.23;4.63;;;13.40;99.90;;;;;;5093802;28;20601;-47
2023/06/03 01:53:06;;;;;;;8.48;3.80;;;13.50;99.90;;;;;;5093966;28;20252;-47
2023/06/03 01:55:31;;;;;;;6.60;3.55;;;13.40;99.90;;;;;;5093644;28;20245;-47
2023/06/03 01:57:57;;;;;;;5.97;3.55;;;13.30;99.90;;;;;;5093553;28;20260;-47
2023/06/03 02:00:22;;;;;;;6.13;3.35;;;13.40;99.90;;;;;;5093584;28;20162;-47
2023/06/03 02:02:48;;;;;;;7.28;3.90;;;13.30;99.90;;;;;;5093454;28;20551;-48
2023/06/03 02:05:14;;;;;;;7.30;3.67;;;13.30;99.90;;;;;;5093455;28;20575;-47
2023/06/03 02:07:39;;;;;;;7.55;4.00;;;13.20;99.90;;;;;;5093712;28;20750;-47
2023/06/03 02:10:05;;;;;;;9.65;3.83;;;13.40;99.90;;;;;;5093608;28;20216;-47
2023/06/03 02:12:31;;;;;;;5.63;4.05;;;13.40;99.90;;;;;;5093128;28;20303;-47
2023/06/03 02:14:56;;;;;;;5.97;3.45;;;13.30;99.90;;;;;;5093207;28;20212;-47
2023/06/03 02:17:26;;;;;;;6.32;3.70;;;13.20;99.90;;;;;;5093198;28;20189;-47
2023/06/03 02:19:55;;;;;;;19.50;4.50;;;13.30;99.90;;;;;;5093410;28;20169;-47
2023/06/03 02:22:22;;;;;;;7.35;3.65;;;13.30;99.90;;;;;;5093171;28;20196;-48
2023/06/03 02:24:47;;;;;;;6.68;3.42;;;13.10;99.90;;;;;;5093305;28;20173;-47
2023/06/03 02:27:19;;;;;;;7.88;3.70;;;13.20;99.90;;;;;;5093052;28;20165;-47
2023/06/03 02:29:50;;;;;;;6.10;3.90;;;13.00;99.90;;;;;;5093260;28;20252;-47
2023/06/03 02:32:16;;;;;;;9.13;3.63;;;13.00;99.90;;;;;;5092853;28;20204;-48
2023/06/03 02:34:43;;;;;;;7.78;4.00;;;13.00;99.90;;;;;;5092878;28;20157;-47
2023/06/03 02:37:10;;;;;;;7.25;3.83;;;12.90;99.90;;;;;;5093160;28;20168;-47
2023/06/03 02:39:36;;;;;;;8.88;4.07;;;12.90;99.90;;;;;;5093396;28;20180;-47
2023/06/03 02:42:02;;;;;;;13.25;4.47;;;12.80;99.90;;;;;;5092731;28;20161;-47
2023/06/03 02:44:28;;;;;;;9.27;3.75;;;13.00;99.90;;;;;;5092927;28;20208;-47
2023/06/03 02:46:53;;;;;;;6.80;3.80;;;13.00;99.90;;;;;;5092626;28;20249;-47
2023/06/03 02:49:19;;;;;;;5.57;3.97;;;12.80;99.90;;;;;;5092586;28;20214;-47
2023/06/03 02:51:44;;;;;;;8.35;3.53;;;12.80;99.90;;;;;;5091970;28;20237;-47
2023/06/03 02:54:10;;;;;;;8.65;4.00;;;12.90;99.90;;;;;;5092954;28;20169;-47
2023/06/03 02:56:36;;;;;;;6.32;4.03;;;12.80;99.90;;;;;;5093043;28;20165;-47
2023/06/03 02:59:01;;;;;;;8.13;3.70;;;12.70;99.90;;;;;;5092658;28;20208;-47
2023/06/03 03:01:27;;;;;;;13.73;3.67;;;12.70;99.90;;;;;;5078712;28;20649;-47
2023/06/03 03:03:53;;;;;;;6.07;3.80;;;12.60;99.90;;;;;;5072055;28;20169;-47
2023/06/03 03:06:21;;;;;;;11.70;4.00;;;12.70;99.90;;;;;;5072138;28;20211;-47
2023/06/03 03:08:48;;;;;;;8.43;3.28;;;12.80;99.90;;;;;;5072047;28;20622;-47
2023/06/03 03:11:14;;;;;;;8.00;4.32;;;12.60;99.90;;;;;;5071783;28;20634;-47
2023/06/03 03:13:41;;;;;;;7.88;4.30;;;12.60;99.90;;;;;;5072582;28;20174;-47
2023/06/03 03:16:07;;;;;;;5.50;3.80;;;12.80;99.90;;;;;;5072611;28;20170;-47
2023/06/03 03:18:32;;;;;;;9.93;3.83;;;12.70;99.90;;;;;;5071816;28;20177;-47
2023/06/03 03:20:58;;;;;;;7.97;4.72;;;12.50;99.90;;;;;;5053782;28;20178;-47
2023/06/03 03:23:25;;;;;;;8.60;4.32;;;12.60;99.90;;;;;;5071718;28;20158;-47
2023/06/03 03:25:50;;;;;;;9.15;4.55;;;12.60;99.90;;;;;;5071795;28;20185;-47
2023/06/03 03:28:16;;;;;;;9.25;4.43;;;12.60;99.90;;;;;;5071881;28;20166;-47
2023/06/03 03:30:41;;;;;;;10.18;4.82;;;12.60;99.90;;;;;;5071587;28;20170;-47
2023/06/03 03:33:07;;;;;;;7.93;4.03;;;12.60;99.90;;;;;;5072087;28;20178;-47
2023/06/03 03:35:39;;;;;;;7.00;4.38;;;12.70;99.90;;;;;;5071712;28;20202;-47
2023/06/03 03:38:06;;;;;;;9.57;4.55;;;12.70;99.90;;;;;;5071832;28;20568;-47
2023/06/03 03:40:35;;;;;;;7.90;4.20;;;13.00;99.90;;;;;;5071854;28;20166;-47
2023/06/03 03:43:02;;;;;;;13.50;4.38;;;13.20;99.90;;;;;;5071549;28;20646;-47
2023/06/03 03:45:35;;;;;;;8.90;4.40;;;12.70;99.90;;;;;;5071494;28;20159;-47
2023/06/03 03:48:09;;;;;;;7.47;4.32;;;12.70;99.90;;;;;;5071513;28;20192;-47
2023/06/03 03:50:40;;;;;;;8.88;4.28;;;12.80;99.90;;;;;;5071898;28;20519;-47
2023/06/03 03:53:09;;;;;;;5.20;3.80;;;12.70;99.90;;;;;;5071795;28;20699;-47
2023/06/03 03:55:43;;;;;;;5.82;4.25;;;12.70;99.90;;;;;;5071395;28;20189;-47
2023/06/03 03:58:33;;;;;;;10.20;4.57;;;12.70;99.90;;;;;;5071789;28;20629;-47
2023/06/03 04:01:00;;;;;;;6.88;3.90;;;12.70;99.90;;;;;;5071355;28;20169;-47
2023/06/03 04:03:27;;;;;;;10.60;4.35;;;12.80;99.90;;;;;;5074197;28;20173;-48
2023/06/03 04:05:53;;;;;;;8.73;3.90;;;12.80;99.90;;;;;;5075802;28;20215;-47
2023/06/03 04:08:39;;;;;;;5.40;4.03;;;12.90;99.90;;;;;;5075276;28;20214;-47
2023/06/03 04:11:13;;;;;;;13.05;4.43;;;12.90;99.90;;;;;;5075226;28;20280;-47
2023/06/03 04:13:40;;;;;;;8.85;3.75;;;12.90;99.90;;;;;;5075793;28;20222;-47
2023/06/03 04:16:38;;;;;;;7.50;4.63;;;12.90;99.90;;;;;;5075693;28;20619;-47
2023/06/03 04:19:06;;;;;;;7.75;3.97;;;13.00;99.90;;;;;;5075299;28;20174;-47
2023/06/03 04:21:37;;;;;;;12.55;4.25;;;12.90;99.90;;;;;;5075362;28;20591;-47
2023/06/03 04:24:05;;;;;;;7.45;4.35;;;12.90;99.90;;;;;;5075062;28;20163;-47
2023/06/03 04:26:30;;;;;;;5.85;3.90;;;13.10;99.90;;;;;;5075130;28;20166;-48
2023/06/03 04:28:56;;;;;;;6.50;4.28;;;13.40;99.90;;;;;;5075041;28;20169;-47
2023/06/03 04:31:21;;;;;;;10.52;4.55;;;13.10;99.90;;;;;;5075050;28;20209;-47
2023/06/03 04:33:48;;;;;;;8.50;4.20;;;13.40;99.90;;;;;;5074889;28;20562;-47
2023/06/03 04:36:14;;;;;;;11.02;4.35;;;13.30;99.90;;;;;;5074928;28;20520;-47
2023/06/03 04:38:41;;;;;;;7.40;4.03;;;13.50;99.90;;;;;;5075339;28;20162;-47
2023/06/03 04:41:06;;;;;;;5.60;3.38;;;13.70;99.90;;;;;;5075452;28;20261;-47
2023/06/03 04:43:33;;;;;;;8.10;3.75;;;14.00;99.90;;;;;;5074702;28;20656;-47
2023/06/03 04:46:00;;;;;;;5.25;3.33;;;14.10;99.90;;;;;;5075076;28;20254;-47
2023/06/03 04:48:26;;;;;;;8.50;3.67;;;14.20;99.90;;;;;;5074988;28;20184;-47
2023/06/03 04:50:52;;;;;;;7.85;3.78;;;14.30;99.90;;;;;;5074456;28;20652;-48
2023/06/03 04:53:18;;;;;;;6.60;3.63;;;14.40;99.90;;;;;;5074579;28;20174;-47
2023/06/03 04:55:44;;;;;;;7.43;3.90;;;14.60;99.90;;;;;;5074496;28;20257;-47
2023/06/03 04:58:11;;;;;;;10.60;3.55;;;14.50;99.90;;;;;;5075162;28;20181;-47
2023/06/03 05:00:36;;;;;;;8.15;3.42;;;14.80;99.90;;;;;;5074942;28;20550;-47
2023/06/03 05:03:08;;;;;;;7.45;3.90;;;15.20;99.90;;;;;;5074387;28;20169;-47
2023/06/03 05:05:34;;;;;;;10.10;4.32;;;14.90;99.90;;;;;;5074265;28;20576;-47
2023/06/03 05:07:59;;;;;;;5.10;3.33;;;14.90;99.90;;;;;;5074139;28;20296;-47
2023/06/03 05:10:25;;;;;;;5.32;3.00;;;15.20;99.90;;;;;;5074472;28;20248;-47
2023/06/03 05:12:51;;;;;;;12.27;3.38;;;15.20;99.90;;;;;;5073469;28;20300;-47
2023/06/03 05:15:16;;;;;;;4.40;3.03;;;15.30;99.90;;;;;;5074234;28;20174;-47
2023/06/03 05:17:42;;;;;;;6.30;2.60;;;15.40;99.90;;;;;;5074457;28;20174;-46
2023/06/03 05:20:09;;;;;;;5.35;3.25;;;15.40;99.90;;;;;;5074555;28;20625;-47
2023/06/03 05:22:35;;;;;;;4.53;2.60;;;15.70;99.90;;;;;;5074278;28;20224;-47
2023/06/03 05:25:05;;;;;;;4.57;2.60;;;15.60;99.90;;;;;;5074251;28;20177;-48
2023/06/03 05:27:31;;;;;;;9.57;2.85;;;16.00;99.90;;;;;;5074251;28;20166;-47
2023/06/03 05:29:57;;;;;;;3.95;2.58;;;15.80;99.90;;;;;;5073944;28;20188;-47
2023/06/03 05:32:22;;;;;;;5.32;2.80;;;15.80;99.90;;;;;;5073889;28;20304;-47
2023/06/03 05:34:48;;;;;;;4.43;2.80;;;15.80;99.90;;;;;;5073800;28;20622;-47
2023/06/03 05:37:14;;;;;;;4.05;1.95;;;15.90;99.90;;;;;;5073932;28;20166;-47
2023/06/03 05:39:40;;;;;;;4.40;1.88;;;15.90;99.90;;;;;;5074089;28;20185;-48
2023/06/03 05:42:06;;;;;;;4.40;1.85;;;16.10;99.90;;;;;;5074575;28;20626;-48
2023/06/03 05:44:31;;;;;;;5.10;2.42;;;16.00;99.90;;;;;;5091171;28;20173;-48
2023/06/03 05:46:57;;;;;;;5.38;1.70;;;16.20;99.90;;;;;;5092065;28;20253;-50
2023/06/03 05:49:23;;;;;;;2.30;1.80;;;15.90;99.90;;;;;;5092012;28;20173;-49
2023/06/03 05:51:48;;;;;;;3.47;1.90;;;16.20;99.90;;;;;;5091755;28;20201;-51
2023/06/03 05:54:14;;;;;;;5.75;2.17;;;16.30;99.90;;;;;;5091795;28;20182;-51
2023/06/03 05:56:40;;;;;;;4.60;1.95;;;16.30;99.90;;;;;;5092166;28;20170;-49
2023/06/03 05:59:05;;;;;;;5.30;2.58;;;16.00;99.90;;;;;;5092505;28;20238;-50
2023/06/03 06:01:33;;;;;;;6.15;2.90;;;16.20;99.90;;;;;;5091673;28;20169;-50
2023/06/03 06:03:59;;;;;;;3.13;1.80;;;16.30;99.90;;;;;;5092008;28;20531;-50
2023/06/03 06:06:25;;;;;;;2.20;1.83;;;16.30;99.90;;;;;;5091449;28;20165;-50
2023/06/03 06:08:51;;;;;;;5.57;2.45;;;16.10;99.90;;;;;;5091631;28;20192;-50
2023/06/03 06:11:17;;;;;;;3.40;2.05;;;16.40;99.90;;;;;;5091456;28;20275;-50
2023/06/03 06:13:42;;;;;;;7.32;3.97;;;16.40;99.90;;;;;;5091537;28;20169;-50
2023/06/03 06:16:08;;;;;;;4.20;1.85;;;16.30;99.90;;;;;;5091920;28;20525;-50
2023/06/03 06:18:34;;;;;;;3.13;1.70;;;16.50;99.90;;;;;;5091509;28;20631;-50
2023/06/03 06:21:00;;;;;;;6.43;2.55;;;16.60;99.90;;;;;;5091357;28;20169;-50
2023/06/03 06:23:25;;;;;;;4.38;1.50;;;16.60;99.90;;;;;;5091323;28;20170;-50
2023/06/03 06:25:53;;;;;;;2.35;1.77;;;16.70;99.90;;;;;;5090387;28;20659;-50
2023/06/03 06:28:26;;;;;;;7.00;2.50;;;16.70;99.90;;;;;;5091061;28;20223;-50
2023/06/03 06:30:53;;;;;;;5.05;1.90;;;16.70;99.90;;;;;;5091345;28;20195;-50
2023/06/03 06:33:19;;;;;;;3.97;1.80;;;16.90;99.90;;;;;;5091071;28;20534;-50
2023/06/03 06:35:45;;;;;;;2.60;1.60;;;16.70;99.90;;;;;;5091298;28;20166;-50
2023/06/03 06:38:11;;;;;;;6.55;2.13;;;16.90;99.90;;;;;;5091004;28;20232;-50
2023/06/03 06:40:40;;;;;;;1.67;1.25;;;17.10;99.90;;;;;;5091293;28;20161;-50
2023/06/03 06:43:09;;;;;;;6.85;2.10;;;16.90;99.90;;;;;;5091317;28;20169;-50
2023/06/03 06:45:35;;;;;;;4.55;1.92;;;17.50;99.90;;;;;;5091215;28;20831;-50
2023/06/03 06:48:04;;;;;;;3.45;1.80;;;17.10;99.90;;;;;;5090735;28;20252;-50
2023/06/03 06:50:44;;;;;;;2.45;1.52;;;17.00;99.90;;;;;;5090703;28;20623;-50
2023/06/03 06:53:10;;;;;;;5.03;1.70;;;17.00;99.90;;;;;;5091034;28;20177;-50
2023/06/03 06:55:59;;;;;;;3.50;2.00;;;17.00;99.30;;;;;;5090970;28;20187;-50
2023/06/03 06:58:32;;;;;;;11.45;2.25;;;17.10;99.90;;;;;;5090764;28;20169;-50
2023/06/03 07:01:00;;;;;;;4.20;3.15;;;17.30;99.90;;;;;;5090563;28;20210;-50
2023/06/03 07:03:26;;;;;;;4.47;1.60;;;17.60;99.90;;;;;;5072320;28;20326;-49
2023/06/03 07:05:53;;;;;;;6.50;2.30;;;17.50;99.90;;;;;;5090031;28;20706;-50
2023/06/03 07:08:23;;;;;;;4.93;2.10;;;17.50;99.90;;;;;;5090338;28;20826;-50
2023/06/03 07:10:49;;;;;;;4.15;1.73;;;17.60;98.00;;;;;;5090214;28;20193;-50
2023/06/03 07:13:16;;;;;;;5.15;1.60;;;17.80;99.90;;;;;;5090621;28;20284;-50
2023/06/03 07:15:43;;;;;;;7.18;3.55;;;17.80;99.40;;;;;;5090084;28;20599;-50
2023/06/03 07:18:09;;;;;;;2.45;1.50;;;17.90;99.80;;;;;;5090712;28;20169;-50
2023/06/03 07:20:46;;;;;;;3.88;2.40;;;18.00;99.90;;;;;;5091031;28;20169;-49
2023/06/03 07:23:19;;;;;;;1.30;1.02;;;17.80;97.00;;;;;;5089865;28;20180;-49
2023/06/03 07:25:46;;;;;;;4.93;1.88;;;17.90;95.00;;;;;;5090346;28;20161;-50
2023/06/03 07:28:14;;;;;;;4.35;2.58;;;18.20;98.00;;;;;;5090162;28;20193;-50
2023/06/03 07:30:41;;;;;;;6.45;2.72;;;18.20;95.80;;;;;;5090173;28;20177;-50
2023/06/03 07:33:20;;;;;;;6.70;2.65;;;18.30;99.90;;;;;;5090758;28;20177;-50
2023/06/03 07:35:50;;;;;;;2.30;1.80;;;18.50;99.90;;;;;;5090535;28;20157;-50
2023/06/03 07:38:31;;;;;;;4.40;2.78;;;18.60;99.90;;;;;;5089803;28;20257;-50
2023/06/03 07:40:56;;;;;;;2.65;1.58;;;18.70;99.90;;;;;;5089918;28;20248;-50
2023/06/03 07:43:22;;;;;;;4.38;1.63;;;18.80;96.90;;;;;;5089823;28;20252;-50
2023/06/03 07:45:49;;;;;;;4.80;1.30;;;18.80;99.90;;;;;;5089877;28;20265;-50
2023/06/03 07:48:15;;;;;;;4.32;2.10;;;19.00;95.60;;;;;;5089819;28;20169;-50
2023/06/03 07:50:40;;;;;;;4.43;1.70;;;18.90;99.90;;;;;;5090007;28;20173;-50
2023/06/03 07:53:06;;;;;;;3.95;1.60;;;19.40;95.10;;;;;;5090267;28;20205;-50
2023/06/03 07:55:43;;;;;;;2.55;1.42;;;19.60;99.70;;;;;;5090023;28;20172;-50
2023/06/03 07:58:12;;;;;;;1.52;1.30;;;19.20;95.90;;;;;;5089634;28;20164;-49
2023/06/03 08:00:43;;;;;;;4.13;1.77;;;19.30;95.10;;;;;;5090268;28;20180;-50
2023/06/03 08:03:09;;;;;;;2.92;1.77;;;19.20;90.70;;;;;;5088846;28;20237;-50
2023/06/03 08:05:35;;;;;;;3.25;1.77;;;19.60;99.90;;;;;;5090174;28;20579;-50
2023/06/03 08:08:05;;;;;;;2.67;1.42;;;19.80;99.90;;;;;;5089535;28;20221;-50
2023/06/03 08:10:32;;;;;;;3.83;1.70;;;19.80;99.90;;;;;;5089655;28;20184;-50
2023/06/03 08:13:00;;;;;;;5.85;2.58;;;19.80;99.90;;;;;;5089348;28;20620;-51
2023/06/03 08:15:28;;;;;;;9.00;3.17;;;19.80;99.90;;;;;;5089587;28;20192;-50
2023/06/03 08:17:54;;;;;;;4.80;1.52;;;20.00;99.90;;;;;;5089526;28;20764;-50
2023/06/03 08:20:26;;;;;;;3.30;1.67;;;20.10;99.60;;;;;;5089627;28;20199;-50
2023/06/03 08:22:53;;;;;;;3.03;2.00;;;20.00;99.90;;;;;;5089157;28;20173;-51
2023/06/03 08:25:19;;;;;;;2.75;1.58;;;20.20;95.00;;;;;;5089612;28;20177;-50
2023/06/03 08:27:45;;;;;;;3.90;1.45;;;20.40;99.00;;;;;;5089718;28;20609;-50
2023/06/03 08:30:15;;;;;;;5.57;1.70;;;20.90;90.50;;;;;;5089791;28;20177;-50
2023/06/03 08:32:41;;;;;;;3.53;2.80;;;20.70;97.80;;;;;;5071170;28;20716;-50
2023/06/03 08:35:12;;;;;;;15.05;6.35;;;21.10;97.30;;;;;;5089428;28;20176;-51
2023/06/03 08:37:39;;;;;;;9.38;2.63;;;21.00;96.50;;;;;;5089456;28;20161;-51
2023/06/03 08:40:09;;;;;;;3.78;2.17;;;20.50;90.40;;;;;;5089804;28;20180;-50
2023/06/03 08:42:41;;;;;;;2.00;1.52;;;20.60;96.00;;;;;;5089943;28;20199;-51
2023/06/03 08:45:12;;;;;;;2.25;1.80;;;20.80;90.10;;;;;;5089366;28;20165;-50
2023/06/03 08:47:50;;;;;;;2.75;2.13;;;20.90;96.70;;;;;;5089530;28;20541;-51
2023/06/03 08:50:19;;;;;;;5.60;2.92;;;21.10;95.80;;;;;;5092836;28;20169;-50
2023/06/03 08:52:47;;;;;;;2.13;1.50;;;21.10;97.10;;;;;;5092763;28;20273;-50
2023/06/03 08:55:16;;;;;;;2.90;1.80;;;21.00;90.90;;;;;;5092678;28;20161;-50
2023/06/03 08:58:05;;;;;;;4.65;1.58;;;21.40;95.20;;;;;;5092992;28;20539;-51
2023/06/03 09:00:32;;;;;;;4.97;2.83;;;21.10;83.80;;;;;;5092874;28;20166;-49
2023/06/03 09:02:59;;;;;;;4.35;2.75;;;21.20;86.70;;;;;;5092556;28;20456;-51
2023/06/03 09:05:25;;;;;;;2.58;1.65;;;21.40;87.70;;;;;;5092636;28;20162;-51
2023/06/03 09:07:52;;;;;;;3.90;1.95;;;21.40;86.60;;;;;;5074592;28;20212;-51
2023/06/03 09:10:21;;;;;;;1.65;1.55;;;22.10;93.50;;;;;;5092913;28;20165;-51
2023/06/03 09:12:48;;;;;;;4.70;2.13;;;21.40;83.40;;;;;;5092643;28;20205;-51
2023/06/03 09:15:14;;;;;;;12.13;7.03;;;21.50;90.30;;;;;;5092859;28;20203;-50
2023/06/03 09:17:43;;;;;;;7.28;2.08;;;21.80;89.40;;;;;;5092534;28;20219;-50
2023/06/03 09:20:10;;;;;;;4.35;1.85;;;22.00;84.40;;;;;;5092844;28;20176;-50
2023/06/03 09:22:37;;;;;;;2.58;1.90;;;22.20;95.10;;;;;;5092922;28;20171;-51
2023/06/03 09:25:04;;;;;;;3.00;2.30;;;22.00;84.20;;;;;;5092394;28;20605;-51
2023/06/03 09:27:31;;;;;;;2.47;1.95;;;22.10;82.60;;;;;;5092286;28;20508;-50
2023/06/03 09:29:57;;;;;;;6.10;2.05;;;22.20;86.80;;;;;;5092180;28;20173;-51
2023/06/03 09:32:22;;;;;;;7.90;2.30;;;22.20;83.60;;;;;;5092042;28;20209;-51
2023/06/03 09:34:49;;;;;;;11.57;3.78;;;22.40;86.00;;;;;;5092245;28;20166;-51
2023/06/03 09:37:14;;;;;;;2.40;1.73;;;22.50;89.30;;;;;;5092206;28;20632;-51
2023/06/03 09:39:40;;;;;;;4.95;2.15;;;22.60;91.20;;;;;;5092027;28;20173;-50
2023/06/03 09:42:06;;;;;;;6.97;2.00;;;22.50;93.00;;;;;;5092554;28;20594;-50
2023/06/03 09:44:39;;;;;;;2.80;1.92;;;22.60;91.70;;;;;;5092121;28;20189;-50
2023/06/03 09:47:05;;;;;;;4.60;2.60;;;22.40;84.70;;;;;;5092527;28;20580;-50
2023/06/03 09:49:31;;;;;;;4.25;2.47;;;22.30;83.50;;;;;;5092273;28;20204;-50
2023/06/03 09:51:57;;;;;;;6.03;2.70;;;22.50;90.90;;;;;;5091867;28;20217;-50
2023/06/03 09:54:23;;;;;;;4.47;2.20;;;22.70;93.30;;;;;;5092016;28;20200;-50
2023/06/03 09:56:51;;;;;;;6.68;2.38;;;22.50;78.50;;;;;;5073789;28;20513;-50
2023/06/03 09:59:25;;;;;;;6.40;2.33;;;22.80;92.00;;;;;;5091412;28;20178;-50
2023/06/03 10:01:52;;;;;;;4.53;2.40;;;22.70;79.00;;;;;;5091180;28;20165;-51
2023/06/03 10:04:41;;;;;;;5.97;2.72;;;22.80;83.80;;;;;;5091920;28;20173;-51
2023/06/03 10:07:07;;;;;;;3.28;2.03;;;23.00;78.60;;;;;;5091848;28;20281;-50
2023/06/03 10:09:33;;;;;;;3.13;2.30;;;23.90;91.70;;;;;;5091905;28;20161;-50
2023/06/03 10:11:59;;;;;;;6.35;2.72;;;23.30;92.10;;;;;;5091436;28;20212;-51
2023/06/03 10:14:27;;;;;;;4.47;1.90;;;23.40;91.40;;;;;;5091389;28;20540;-50
2023/06/03 10:17:03;;;;;;;6.97;2.70;;;23.50;82.80;;;;;;5091519;28;20259;-50
2023/06/03 10:19:31;;;;;;;3.65;2.03;;;23.20;84.70;;;;;;5090518;28;20213;-49
2023/06/03 10:21:57;;;;;;;5.43;2.13;;;23.40;90.70;;;;;;5091688;28;20672;-51
2023/06/03 10:24:24;;;;;;;6.05;2.40;;;23.20;91.20;;;;;;5091346;28;20204;-51
2023/06/03 10:26:50;;;;;;;5.78;2.70;;;23.30;78.40;;;;;;5091125;28;20196;-50
2023/06/03 10:29:16;;;;;;;6.20;2.70;;;23.20;93.20;;;;;;5091230;28;20299;-50
2023/06/03 10:31:45;;;;;;;4.70;3.20;;;23.70;82.60;;;;;;5091187;28;20295;-51
2023/06/03 10:34:15;;;;;;;7.53;2.60;;;24.40;84.80;;;;;;5091044;28;20213;-51
2023/06/03 10:36:42;;;;;;;8.32;3.78;;;23.80;80.00;;;;;;5091262;28;20200;-51
2023/06/03 10:39:11;;;;;;;4.90;2.85;;;23.70;78.30;;;;;;5090836;28;20180;-49
2023/06/03 10:41:38;;;;;;;5.90;2.70;;;24.20;75.70;;;;;;5091619;28;20173;-50
2023/06/03 10:44:04;;;;;;;2.45;2.15;;;24.00;90.40;;;;;;5091342;28;20672;-51
2023/06/03 10:46:30;;;;;;;5.38;2.38;;;24.60;87.50;;;;;;5091140;28;20177;-50
2023/06/03 10:48:56;;;;;;;4.47;2.55;;;24.40;87.90;;;;;;5090668;28;20165;-51
2023/06/03 10:51:41;;;;;;;12.05;5.32;;;24.50;83.80;;;;;;5090486;28;20204;-51
2023/06/03 10:54:30;;;;;;;18.90;8.68;;;24.00;73.80;;;;;;5091244;28;20169;-51
2023/06/03 10:57:03;;;;;;;10.82;6.32;;;25.20;78.40;;;;;;5090676;28;20165;-51
2023/06/03 10:59:42;;;;;;;8.23;3.35;;;24.30;73.40;;;;;;5090507;28;20177;-51
2023/06/03 11:02:08;;;;;;;3.75;2.05;;;24.30;83.50;;;;;;5090767;28;20176;-50
2023/06/03 11:04:37;;;;;;;23.38;10.07;;;24.30;76.40;;;;;;5091189;28;20170;-51
2023/06/03 11:07:04;;;;;;;5.07;2.90;;;25.00;79.90;;;;;;5090813;28;20232;-51
2023/06/03 11:09:40;;;;;;;4.75;3.55;;;24.40;75.70;;;;;;5089930;28;20178;-50
2023/06/03 11:12:09;;;;;;;2.90;2.30;;;24.70;91.30;;;;;;5090345;28;20290;-51
2023/06/03 11:14:42;;;;;;;5.65;2.60;;;24.70;84.40;;;;;;5091126;28;20173;-48
2023/06/03 11:17:09;;;;;;;4.40;2.00;;;24.40;72.70;;;;;;5090398;28;20173;-48
2023/06/03 11:19:55;;;;;;;4.13;1.95;;;24.20;83.00;;;;;;5090590;28;20246;-48
2023/06/03 11:22:27;;;;;;;3.55;2.33;;;24.00;84.40;;;;;;5090313;28;20177;-48
2023/06/03 11:24:53;;;;;;;3.78;2.30;;;24.20;85.60;;;;;;5090115;28;20165;-48
2023/06/03 11:27:21;;;;;;;5.60;2.00;;;24.50;83.00;;;;;;5090124;28;20222;-48
2023/06/03 11:29:46;;;;;;;5.88;1.70;;;24.80;81.00;;;;;;5090290;28;20630;-48
2023/06/03 11:32:16;;;;;;;4.70;2.30;;;24.10;85.50;;;;;;5071802;28;20307;-48
2023/06/03 11:34:43;;;;;;;3.58;1.92;;;23.90;85.10;;;;;;5089752;28;20222;-48
2023/06/03 11:37:09;;;;;;;3.28;2.08;;;24.40;88.60;;;;;;5089986;28;20170;-48
2023/06/03 11:40:06;;;;;;;3.97;2.17;;;24.40;91.50;;;;;;5090181;28;20168;-48
2023/06/03 11:42:51;;;;;;;3.50;2.30;;;24.30;87.20;;;;;;5089623;28;20169;-48
2023/06/03 11:45:29;;;;;;;3.80;2.20;;;25.20;90.90;;;;;;5072327;28;20264;-48
2023/06/03 11:47:55;;;;;;;6.40;1.70;;;24.40;86.70;;;;;;5089875;28;20207;-48
2023/06/03 11:50:26;;;;;;;6.93;2.28;;;25.30;90.40;;;;;;5089899;28;20191;-48
2023/06/03 11:52:51;;;;;;;2.60;1.90;;;24.60;88.80;;;;;;5071380;28;20226;-48
2023/06/03 11:55:31;;;;;;;4.57;1.95;;;25.10;86.90;;;;;;5089554;28;20223;-48
2023/06/03 11:58:10;;;;;;;5.88;1.98;;;24.80;83.30;;;;;;5089978;28;20688;-48
2023/06/03 12:00:37;;;;;;;3.55;1.75;;;25.40;91.70;;;;;;5090004;28;20644;-48
2023/06/03 12:03:03;;;;;;;4.97;1.85;;;25.00;91.10;;;;;;5090287;28;20264;-48
2023/06/03 12:05:28;;;;;;;6.65;1.90;;;24.80;92.90;;;;;;5089518;28;20279;-48
2023/06/03 12:08:01;;;;;;;4.28;2.05;;;24.90;93.00;;;;;;5089489;28;20232;-48
2023/06/03 12:10:27;;;;;;;4.30;2.00;;;24.60;93.70;;;;;;5071404;28;20173;-48
2023/06/03 12:12:54;;;;;;;5.15;1.73;;;25.00;93.40;;;;;;5089914;28;20212;-48
2023/06/03 12:15:20;;;;;;;3.22;1.80;;;25.20;93.40;;;;;;5089437;28;20687;-48
2023/06/03 12:17:46;;;;;;;5.68;1.92;;;25.00;93.90;;;;;;5089563;28;20181;-48
2023/06/03 12:20:26;;;;;;;6.13;2.22;;;25.60;92.80;;;;;;5089453;28;20644;-48
2023/06/03 12:23:05;;;;;;;3.35;1.70;;;25.80;91.60;;;;;;5089654;28;20786;-48
2023/06/03 12:25:33;;;;;;;3.67;2.00;;;25.80;82.30;;;;;;5093453;28;20169;-48
2023/06/03 12:28:28;;;;;;;3.17;1.92;;;25.50;84.60;;;;;;5093552;28;20162;-48
2023/06/03 12:30:54;;;;;;;5.78;1.80;;;24.70;80.40;;;;;;5093615;28;20165;-48
2023/06/03 12:33:19;;;;;;;7.40;2.20;;;24.70;86.50;;;;;;5075261;28;20671;-48
2023/06/03 12:35:56;;;;;;;6.50;4.07;;;25.00;89.20;;;;;;5093368;28;20168;-48
2023/06/03 12:38:23;;;;;;;5.15;2.25;;;25.20;85.00;;;;;;5093225;28;20165;-48
2023/06/03 12:40:49;;;;;;;5.88;2.22;;;24.30;88.70;;;;;;5093491;28;20201;-48
2023/06/03 12:43:19;;;;;;;3.75;2.10;;;25.80;90.50;;;;;;5092729;28;20208;-48
2023/06/03 12:45:45;;;;;;;6.47;2.28;;;25.00;90.10;;;;;;5093237;28;20661;-48
2023/06/03 12:48:30;;;;;;;3.17;1.60;;;25.00;90.40;;;;;;5093305;28;20169;-48
2023/06/03 12:50:56;;;;;;;3.33;1.90;;;24.60;85.50;;;;;;5093072;28;20636;-48
2023/06/03 12:53:22;;;;;;;7.00;1.98;;;25.10;86.90;;;;;;5092928;28;20226;-48